createdAt,value
2023-01-01T00:00:45.731Z,9.77
2023-01-01T00:03:12.781Z,11.20
2023-01-01T00:05:40.240Z,8.23
2023-01-01T00:08:07.736Z,9.70
2023-01-01T00:10:34.527Z,9.88
2023-01-01T00:13:01.435Z,10.82
2023-01-01T00:15:28.872Z,9.48
2023-01-01T00:17:56.467Z,8.63
2023-01-01T00:20:24.083Z,8.43
2023-01-01T00:22:55.887Z,6.40
2023-01-01T00:25:26.777Z,3.97
2023-01-01T00:27:53.798Z,4.10
2023-01-01T00:30:20.557Z,4.47
2023-01-01T00:32:54.471Z,3.25
2023-01-01T00:35:23.230Z,6.05
2023-01-01T00:37:50.067Z,6.63
2023-01-01T00:40:16.828Z,21.02
2023-01-01T00:42:43.979Z,28.20
2023-01-01T00:45:20.479Z,19.95
2023-01-01T00:47:48.785Z,15.32
2023-01-01T00:50:15.877Z,17.30
2023-01-01T00:52:42.788Z,29.77
2023-01-01T00:55:10.467Z,24.38
2023-01-01T00:57:37.832Z,12.68
2023-01-01T01:00:06.120Z,7.05
2023-01-01T01:02:33.036Z,4.28
2023-01-01T01:05:01.623Z,2.60
2023-01-01T01:07:28.579Z,2.60
2023-01-01T01:09:55.813Z,2.60
2023-01-01T01:12:22.901Z,3.05
2023-01-01T01:14:49.658Z,4.20
2023-01-01T01:17:16.559Z,2.67
2023-01-01T01:19:43.446Z,3.15
2023-01-01T01:22:10.495Z,3.25
2023-01-01T01:24:37.507Z,2.10
2023-01-01T01:27:14.802Z,5.07
2023-01-01T01:29:41.579Z,3.75
2023-01-01T01:32:08.554Z,3.22
2023-01-01T01:34:35.456Z,6.88
2023-01-01T01:37:02.245Z,2.90
2023-01-01T01:39:29.206Z,4.25
2023-01-01T01:41:56.134Z,3.03
2023-01-01T01:44:50.810Z,5.95
2023-01-01T01:47:39.681Z,5.00
2023-01-01T01:50:13.529Z,4.68
2023-01-01T01:52:52.645Z,6.38
2023-01-01T01:55:19.878Z,4.55
2023-01-01T01:57:46.964Z,4.13
2023-01-01T02:00:14.691Z,5.90
2023-01-01T02:02:56.758Z,3.80
2023-01-01T02:05:24.744Z,5.70
2023-01-01T02:07:53.840Z,3.95
2023-01-01T02:10:20.829Z,4.45
2023-01-01T02:12:50.044Z,4.38
2023-01-01T02:15:17.350Z,4.75
2023-01-01T02:18:08.801Z,4.68
2023-01-01T02:20:47.626Z,11.05
2023-01-01T02:23:36.688Z,4.85
2023-01-01T02:26:38.543Z,3.08
2023-01-01T02:29:55.346Z,3.70
2023-01-01T02:32:28.337Z,2.92
2023-01-01T02:35:32.902Z,3.63
2023-01-01T02:38:23.749Z,4.00
2023-01-01T02:40:57.249Z,3.85
2023-01-01T02:43:25.109Z,5.10
2023-01-01T02:45:54.142Z,3.28
2023-01-01T02:48:44.811Z,3.97
2023-01-01T02:51:14.818Z,4.10
2023-01-01T02:53:53.393Z,4.35
2023-01-01T02:56:50.037Z,6.80
2023-01-01T02:59:50.509Z,4.18
2023-01-01T03:04:58.537Z,4.07
2023-01-01T03:07:34.371Z,6.03
2023-01-01T03:10:15.345Z,4.53
2023-01-01T03:12:46.082Z,4.82
2023-01-01T03:15:45.460Z,3.38
2023-01-01T03:18:22.171Z,5.03
2023-01-01T03:20:54.333Z,4.03
2023-01-01T03:23:27.220Z,4.10
2023-01-01T03:25:59.801Z,4.70
2023-01-01T03:28:32.792Z,3.95
2023-01-01T03:31:01.114Z,3.45
2023-01-01T03:33:41.563Z,4.60
2023-01-01T03:36:24.443Z,3.47
2023-01-01T03:38:57.552Z,5.65
2023-01-01T03:41:28.051Z,4.05
2023-01-01T03:46:36.369Z,3.92
2023-01-01T03:49:06.302Z,3.67
2023-01-01T03:52:12.563Z,4.97
2023-01-01T03:55:04.512Z,4.70
2023-01-01T03:57:50.075Z,4.82
2023-01-01T04:00:31.011Z,4.60
2023-01-01T04:03:04.506Z,5.28
2023-01-01T04:05:33.565Z,6.25
2023-01-01T04:08:03.148Z,5.10
2023-01-01T04:10:33.168Z,5.78
2023-01-01T04:13:04.556Z,6.25
2023-01-01T04:15:32.783Z,5.35
2023-01-01T04:17:59.884Z,5.45
2023-01-01T04:20:29.545Z,4.45
2023-01-01T04:22:57.488Z,4.57
2023-01-01T04:25:24.669Z,5.13
2023-01-01T04:27:52.216Z,4.63
2023-01-01T04:30:19.270Z,3.60
2023-01-01T04:32:46.133Z,3.45
2023-01-01T04:35:15.029Z,5.15
2023-01-01T04:37:43.427Z,3.78
2023-01-01T04:40:11.684Z,3.90
2023-01-01T04:42:38.865Z,3.55
2023-01-01T04:45:06.169Z,4.30
2023-01-01T04:47:33.145Z,2.38
2023-01-01T04:50:02.135Z,2.75
2023-01-01T04:52:29.345Z,3.03
2023-01-01T04:54:56.293Z,3.65
2023-01-01T04:57:23.406Z,2.08
2023-01-01T04:59:50.114Z,2.55
2023-01-01T05:02:17.192Z,3.92
2023-01-01T05:04:44.195Z,4.55
2023-01-01T05:07:11.130Z,5.25
2023-01-01T05:09:38.373Z,4.63
2023-01-01T05:12:05.479Z,6.03
2023-01-01T05:14:32.384Z,4.88
2023-01-01T05:16:59.638Z,6.38
2023-01-01T05:19:28.732Z,3.22
2023-01-01T05:21:55.903Z,5.95
2023-01-01T05:24:22.618Z,3.05
2023-01-01T05:26:49.549Z,6.97
2023-01-01T05:29:17.531Z,10.35
2023-01-01T05:31:45.654Z,9.07
2023-01-01T05:34:13.348Z,14.55
2023-01-01T05:36:40.437Z,14.90
2023-01-01T05:39:08.975Z,6.70
2023-01-01T05:41:38.269Z,4.28
2023-01-01T05:44:07.406Z,6.57
2023-01-01T05:46:35.075Z,3.13
2023-01-01T05:49:02.396Z,4.43
2023-01-01T05:53:58.560Z,1.98
2023-01-01T05:56:26.903Z,2.70
2023-01-01T05:58:54.478Z,4.22
2023-01-01T06:01:26.906Z,2.40
2023-01-01T06:03:55.297Z,4.68
2023-01-01T06:06:24.830Z,4.80
2023-01-01T06:08:57.189Z,4.15
2023-01-01T06:11:24.689Z,2.97
2023-01-01T06:13:57.155Z,5.70
2023-01-01T06:16:25.357Z,3.20
2023-01-01T06:18:52.486Z,2.45
2023-01-01T06:21:24.872Z,2.70
2023-01-01T06:23:52.393Z,3.70
2023-01-01T06:26:25.434Z,3.40
2023-01-01T06:28:52.804Z,3.05
2023-01-01T06:31:21.874Z,3.45
2023-01-01T06:33:49.579Z,2.60
2023-01-01T06:36:19.071Z,3.60
2023-01-01T06:38:48.980Z,3.40
2023-01-01T06:41:21.196Z,3.38
2023-01-01T06:43:48.852Z,3.97
2023-01-01T06:46:29.268Z,4.28
2023-01-01T06:49:01.662Z,3.05
2023-01-01T06:51:38.712Z,3.95
2023-01-01T06:54:06.710Z,3.83
2023-01-01T06:56:34.471Z,3.72
2023-01-01T06:59:01.922Z,3.17
2023-01-01T07:01:31.296Z,3.60
2023-01-01T07:04:08.462Z,2.47
2023-01-01T07:06:38.031Z,3.13
2023-01-01T07:09:06.607Z,4.55
2023-01-01T07:11:34.595Z,3.90
2023-01-01T07:14:04.036Z,5.45
2023-01-01T07:16:31.267Z,4.10
2023-01-01T07:18:58.593Z,4.57
2023-01-01T07:21:34.338Z,2.55
2023-01-01T07:24:04.117Z,2.67
2023-01-01T07:26:32.357Z,2.38
2023-01-01T07:29:06.445Z,2.80
2023-01-01T07:31:36.627Z,4.00
2023-01-01T07:34:03.717Z,2.85
2023-01-01T07:36:30.601Z,2.08
2023-01-01T07:38:57.476Z,3.00
2023-01-01T07:41:24.278Z,2.47
2023-01-01T07:43:51.816Z,2.10
2023-01-01T07:46:19.282Z,1.80
2023-01-01T07:48:46.619Z,3.13
2023-01-01T07:51:13.950Z,2.67
2023-01-01T07:53:40.990Z,3.92
2023-01-01T07:56:08.265Z,2.40
2023-01-01T07:58:35.467Z,3.88
2023-01-01T08:01:02.302Z,5.82
2023-01-01T08:03:29.320Z,4.32
2023-01-01T08:05:56.140Z,2.70
2023-01-01T08:08:22.962Z,2.83
2023-01-01T08:10:50.155Z,5.65
2023-01-01T08:13:17.188Z,3.70
2023-01-01T08:15:44.285Z,3.33
2023-01-01T08:18:11.164Z,1.98
2023-01-01T08:20:38.040Z,3.75
2023-01-01T08:23:07.637Z,2.95
2023-01-01T08:25:35.895Z,2.38
2023-01-01T08:28:03.037Z,4.00
2023-01-01T08:30:29.809Z,2.85
2023-01-01T08:32:56.582Z,4.55
2023-01-01T08:35:23.286Z,6.78
2023-01-01T08:37:50.262Z,4.47
2023-01-01T08:40:17.044Z,2.95
2023-01-01T08:42:43.993Z,2.08
2023-01-01T08:45:11.578Z,2.33
2023-01-01T08:47:38.811Z,4.85
2023-01-01T08:50:06.168Z,2.80
2023-01-01T08:52:33.406Z,3.15
2023-01-01T08:55:00.963Z,2.67
2023-01-01T08:57:31.699Z,1.90
2023-01-01T08:59:58.944Z,2.45
2023-01-01T09:02:26.436Z,1.48
2023-01-01T09:04:53.345Z,2.05
2023-01-01T09:07:48.747Z,1.75
2023-01-01T09:10:15.628Z,3.88
2023-01-01T09:12:42.406Z,1.83
2023-01-01T09:15:16.553Z,1.20
2023-01-01T09:17:43.418Z,2.78
2023-01-01T09:20:10.874Z,2.20
2023-01-01T09:22:37.815Z,2.50
2023-01-01T09:25:05.037Z,2.20
2023-01-01T09:27:31.788Z,3.03
2023-01-01T09:30:00.176Z,2.55
2023-01-01T09:32:29.101Z,3.55
2023-01-01T09:34:57.385Z,4.82
2023-01-01T09:37:24.323Z,2.33
2023-01-01T09:39:51.123Z,3.42
2023-01-01T09:42:41.554Z,3.08
2023-01-01T09:45:21.254Z,3.92
2023-01-01T09:47:52.230Z,2.97
2023-01-01T09:50:22.693Z,3.42
2023-01-01T09:52:57.145Z,3.30
2023-01-01T09:55:41.957Z,2.33
2023-01-01T09:58:11.978Z,3.85
2023-01-01T10:00:48.834Z,4.50
2023-01-01T10:03:37.025Z,4.18
2023-01-01T10:06:15.924Z,4.43
2023-01-01T10:09:04.629Z,5.38
2023-01-01T10:11:50.336Z,4.35
2023-01-01T10:14:32.540Z,6.55
2023-01-01T10:17:03.928Z,5.78
2023-01-01T10:19:45.444Z,5.93
2023-01-01T10:22:36.129Z,6.13
2023-01-01T10:25:16.004Z,8.68
2023-01-01T10:27:57.255Z,7.53
2023-01-01T10:30:28.745Z,6.85
2023-01-01T10:32:57.021Z,10.05
2023-01-01T10:35:39.932Z,8.35
2023-01-01T10:38:06.999Z,8.48
2023-01-01T10:40:34.340Z,11.35
2023-01-01T10:43:03.876Z,8.25
2023-01-01T10:45:42.338Z,8.27
2023-01-01T10:48:21.370Z,9.13
2023-01-01T10:50:59.852Z,7.80
2023-01-01T10:53:41.126Z,10.15
2023-01-01T10:56:12.941Z,9.30
2023-01-01T10:58:44.574Z,8.93
2023-01-01T11:01:17.330Z,10.15
2023-01-01T11:04:04.185Z,9.65
2023-01-01T11:06:35.748Z,14.55
2023-01-01T11:09:21.610Z,10.98
2023-01-01T11:11:55.513Z,9.25
2023-01-01T11:14:27.474Z,13.13
2023-01-01T11:16:56.056Z,12.93
2023-01-01T11:19:32.735Z,12.63
2023-01-01T11:22:00.647Z,12.10
2023-01-01T11:24:30.719Z,12.52
2023-01-01T11:27:16.442Z,12.45
2023-01-01T11:29:43.281Z,11.70
2023-01-01T11:32:16.836Z,13.57
2023-01-01T11:34:44.857Z,12.45
2023-01-01T11:37:14.737Z,11.27
2023-01-01T11:39:48.370Z,12.50
2023-01-01T11:42:21.765Z,14.05
2023-01-01T11:44:56.268Z,14.82
2023-01-01T11:47:25.284Z,14.55
2023-01-01T11:50:13.800Z,12.27
2023-01-01T11:52:43.412Z,15.40
2023-01-01T11:55:36.350Z,13.52
2023-01-01T11:58:06.502Z,12.20
2023-01-01T12:00:36.647Z,11.95
2023-01-01T12:03:28.145Z,14.05
2023-01-01T12:06:32.191Z,12.63
2023-01-01T12:09:18.341Z,15.05
2023-01-01T12:12:05.074Z,14.25
2023-01-01T12:15:03.958Z,13.63
2023-01-01T12:17:39.659Z,14.95
2023-01-01T12:20:26.486Z,10.10
2023-01-01T12:22:56.724Z,9.50
2023-01-01T12:25:24.494Z,13.43
2023-01-01T12:28:09.539Z,9.82
2023-01-01T12:30:54.279Z,12.63
2023-01-01T12:33:52.196Z,15.25
2023-01-01T12:36:29.188Z,11.95
2023-01-01T12:39:49.508Z,12.88
2023-01-01T12:42:19.307Z,9.20
2023-01-01T12:45:08.758Z,11.38
2023-01-01T12:48:00.873Z,10.70
2023-01-01T12:50:56.043Z,9.43
2023-01-01T12:53:33.050Z,8.73
2023-01-01T12:56:20.695Z,9.32
2023-01-01T12:59:06.503Z,7.97
2023-01-01T13:01:36.509Z,7.38
2023-01-01T13:04:07.932Z,8.75
2023-01-01T13:06:47.426Z,8.95
2023-01-01T13:09:20.922Z,9.27
2023-01-01T13:11:54.868Z,9.52
2023-01-01T13:14:21.710Z,10.00
2023-01-01T13:16:53.819Z,7.95
2023-01-01T13:19:40.898Z,11.43
2023-01-01T13:22:26.390Z,7.68
2023-01-01T13:25:20.176Z,8.68
2023-01-01T13:27:56.502Z,8.23
2023-01-01T13:30:38.857Z,7.57
2023-01-01T13:33:26.336Z,8.82
2023-01-01T13:38:51.569Z,7.45
2023-01-01T13:41:30.403Z,7.47
2023-01-01T13:44:00.444Z,8.60
2023-01-01T13:46:51.595Z,6.78
2023-01-01T13:49:33.012Z,6.95
2023-01-01T13:52:48.092Z,6.40
2023-01-01T13:55:49.093Z,6.45
2023-01-01T13:58:57.960Z,6.75
2023-01-01T14:01:43.723Z,7.70
2023-01-01T14:04:32.610Z,9.27
2023-01-01T14:07:32.996Z,7.90
2023-01-01T14:09:53.180Z,5.22
2023-01-01T14:12:21.724Z,4.63
2023-01-01T14:14:48.579Z,5.90
2023-01-01T14:17:17.284Z,4.95
2023-01-01T14:19:44.658Z,5.25
2023-01-01T14:22:15.035Z,4.28
2023-01-01T14:24:45.963Z,6.43
2023-01-01T14:27:19.902Z,6.10
2023-01-01T14:29:48.861Z,6.47
2023-01-01T14:32:23.022Z,7.43
2023-01-01T14:35:02.364Z,8.10
2023-01-01T14:37:29.332Z,7.90
2023-01-01T14:40:16.619Z,5.28
2023-01-01T14:42:45.272Z,6.63
2023-01-01T14:45:17.648Z,7.72
2023-01-01T14:47:50.826Z,6.90
2023-01-01T14:50:32.609Z,7.00
2023-01-01T14:53:06.810Z,5.40
2023-01-01T14:55:42.765Z,7.03
2023-01-01T14:58:22.348Z,5.70
2023-01-01T15:00:49.643Z,7.40
2023-01-01T15:03:19.264Z,7.65
2023-01-01T15:05:58.629Z,7.18
2023-01-01T15:08:27.365Z,6.90
2023-01-01T15:10:55.768Z,10.13
2023-01-01T15:13:24.945Z,9.05
2023-01-01T15:15:54.057Z,7.85
2023-01-01T15:18:42.682Z,8.10
2023-01-01T15:21:16.765Z,7.72
2023-01-01T15:24:00.985Z,19.85
2023-01-01T15:26:42.126Z,21.92
2023-01-01T15:29:11.967Z,18.20
2023-01-01T15:31:46.599Z,10.30
2023-01-01T15:34:31.711Z,9.48
2023-01-01T15:37:14.497Z,8.38
2023-01-01T15:40:00.010Z,7.15
2023-01-01T15:42:38.394Z,10.10
2023-01-01T15:45:14.126Z,7.93
2023-01-01T15:47:41.675Z,9.95
2023-01-01T15:50:13.823Z,8.55
2023-01-01T15:52:43.757Z,7.35
2023-01-01T15:55:17.815Z,4.88
2023-01-01T15:57:52.087Z,6.60
2023-01-01T16:00:20.893Z,5.65
2023-01-01T16:02:49.407Z,8.07
2023-01-01T16:05:21.057Z,6.13
2023-01-01T16:07:48.290Z,5.70
2023-01-01T16:10:16.867Z,8.50
2023-01-01T16:12:43.689Z,7.03
2023-01-01T16:15:16.708Z,5.30
2023-01-01T16:17:47.466Z,6.90
2023-01-01T16:20:16.192Z,7.45
2023-01-01T16:22:43.797Z,7.53
2023-01-01T16:25:15.856Z,6.70
2023-01-01T16:27:42.989Z,5.13
2023-01-01T16:30:11.682Z,4.05
2023-01-01T16:32:39.347Z,6.38
2023-01-01T16:35:12.105Z,4.50
2023-01-01T16:37:39.412Z,7.32
2023-01-01T16:40:08.387Z,5.15
2023-01-01T16:42:35.767Z,7.43
2023-01-01T16:45:02.661Z,4.13
2023-01-01T16:47:31.879Z,4.53
2023-01-01T16:50:00.413Z,4.20
2023-01-01T16:52:32.947Z,4.00
2023-01-01T16:55:00.736Z,4.45
2023-01-01T16:57:30.465Z,5.88
2023-01-01T16:59:57.690Z,3.67
2023-01-01T17:02:25.763Z,5.93
2023-01-01T17:04:52.718Z,4.20
2023-01-01T17:07:19.926Z,4.38
2023-01-01T17:09:46.745Z,3.78
2023-01-01T17:12:13.491Z,4.82
2023-01-01T17:14:40.685Z,4.25
2023-01-01T17:17:07.441Z,3.85
2023-01-01T17:19:34.215Z,3.83
2023-01-01T17:22:01.358Z,4.18
2023-01-01T17:24:28.126Z,3.00
2023-01-01T17:26:55.669Z,3.67
2023-01-01T17:29:25.950Z,6.45
2023-01-01T17:31:53.402Z,4.38
2023-01-01T17:34:20.193Z,3.88
2023-01-01T17:36:47.316Z,3.22
2023-01-01T17:39:15.434Z,3.75
2023-01-01T17:41:43.818Z,3.25
2023-01-01T17:44:11.556Z,4.63
2023-01-01T17:46:39.486Z,6.15
2023-01-01T17:49:06.696Z,3.88
2023-01-01T17:51:33.627Z,4.95
2023-01-01T17:54:02.758Z,3.75
2023-01-01T17:56:29.567Z,3.35
2023-01-01T17:58:58.967Z,3.13
2023-01-01T18:01:30.727Z,4.45
2023-01-01T18:04:00.548Z,3.25
2023-01-01T18:06:29.515Z,3.33
2023-01-01T18:09:01.634Z,4.18
2023-01-01T18:11:30.877Z,4.30
2023-01-01T18:14:07.421Z,3.47
2023-01-01T18:16:37.288Z,3.90
2023-01-01T18:19:05.403Z,3.53
2023-01-01T18:21:34.317Z,2.80
2023-01-01T18:24:01.244Z,5.40
2023-01-01T18:26:30.439Z,2.83
2023-01-01T18:28:59.908Z,2.92
2023-01-01T18:31:29.178Z,2.05
2023-01-01T18:33:56.525Z,4.50
2023-01-01T18:36:29.556Z,2.80
2023-01-01T18:39:00.908Z,4.20
2023-01-01T18:41:30.499Z,3.58
2023-01-01T18:44:00.220Z,7.13
2023-01-01T18:46:29.560Z,4.13
2023-01-01T18:48:59.403Z,4.32
2023-01-01T18:51:27.895Z,5.43
2023-01-01T18:53:59.306Z,4.15
2023-01-01T18:56:26.497Z,4.22
2023-01-01T18:58:56.318Z,3.95
2023-01-01T19:01:24.430Z,4.60
2023-01-01T19:03:56.334Z,4.03
2023-01-01T19:06:32.256Z,3.45
2023-01-01T19:09:23.216Z,7.25
2023-01-01T19:11:52.467Z,6.00
2023-01-01T19:14:23.905Z,4.78
2023-01-01T19:16:55.307Z,3.60
2023-01-01T19:19:23.789Z,6.45
2023-01-01T19:21:57.269Z,4.07
2023-01-01T19:24:26.463Z,4.63
2023-01-01T19:27:05.269Z,3.95
2023-01-01T19:29:34.055Z,4.20
2023-01-01T19:32:00.808Z,4.28
2023-01-01T19:34:27.695Z,3.65
2023-01-01T19:36:54.487Z,3.35
2023-01-01T19:39:21.227Z,3.78
2023-01-01T19:41:47.926Z,3.65
2023-01-01T19:44:19.863Z,2.95
2023-01-01T19:46:50.033Z,4.28
2023-01-01T19:49:17.095Z,3.60
2023-01-01T19:51:47.270Z,3.22
2023-01-01T19:54:14.170Z,3.22
2023-01-01T19:56:41.688Z,2.85
2023-01-01T19:59:08.522Z,4.95
2023-01-01T20:01:36.025Z,4.25
2023-01-01T20:04:05.626Z,2.88
2023-01-01T20:06:36.490Z,4.90
2023-01-01T20:09:04.187Z,3.53
2023-01-01T20:11:32.080Z,3.78
2023-01-01T20:13:59.012Z,3.33
2023-01-01T20:16:25.929Z,4.78
2023-01-01T20:18:52.761Z,4.05
2023-01-01T20:21:38.417Z,3.85
2023-01-01T20:24:05.674Z,2.20
2023-01-01T20:26:32.586Z,2.97
2023-01-01T20:29:18.169Z,3.20
2023-01-01T20:31:45.693Z,3.45
2023-01-01T20:34:12.480Z,2.88
2023-01-01T20:36:58.044Z,3.45
2023-01-01T20:39:25.042Z,3.50
2023-01-01T20:41:52.088Z,2.72
2023-01-01T20:44:18.994Z,4.50
2023-01-01T20:46:49.617Z,3.30
2023-01-01T20:49:17.763Z,2.88
2023-01-01T20:51:46.045Z,3.05
2023-01-01T20:54:13.278Z,4.85
2023-01-01T20:56:40.614Z,4.25
2023-01-01T20:59:31.414Z,3.13
2023-01-01T21:01:54.295Z,2.60
2023-01-01T21:04:21.199Z,2.95
2023-01-01T21:06:48.052Z,4.45
2023-01-01T21:09:14.764Z,2.75
2023-01-01T21:11:41.494Z,2.80
2023-01-01T21:14:09.151Z,2.63
2023-01-01T21:16:38.596Z,1.92
2023-01-01T21:19:12.460Z,2.67
2023-01-01T21:21:49.226Z,1.77
2023-01-01T21:24:27.441Z,2.25
2023-01-01T21:27:01.640Z,3.75
2023-01-01T21:29:32.231Z,3.67
2023-01-01T21:32:43.766Z,1.80
2023-01-01T21:35:24.695Z,2.28
2023-01-01T21:37:58.599Z,3.50
2023-01-01T21:40:37.157Z,2.28
2023-01-01T21:43:24.228Z,2.15
2023-01-01T21:45:51.977Z,4.35
2023-01-01T21:48:42.193Z,3.78
2023-01-01T21:51:27.211Z,4.43
2023-01-01T21:54:14.744Z,1.70
2023-01-01T21:56:43.972Z,2.03
2023-01-01T21:59:26.491Z,4.68
2023-01-01T22:02:02.374Z,2.58
2023-01-01T22:04:54.569Z,4.15
2023-01-01T22:07:58.580Z,3.42
2023-01-01T22:13:19.407Z,4.05
2023-01-01T22:15:47.325Z,2.20
2023-01-01T22:18:26.670Z,2.30
2023-01-01T22:20:54.132Z,2.53
2023-01-01T22:23:41.875Z,2.58
2023-01-01T22:26:29.939Z,1.80
2023-01-01T22:29:17.050Z,4.72
2023-01-01T22:31:48.896Z,2.35
2023-01-01T22:34:22.160Z,3.63
2023-01-01T22:36:49.104Z,2.42
2023-01-01T22:39:26.005Z,2.45
2023-01-01T22:41:53.403Z,3.47
2023-01-01T22:44:20.732Z,2.92
2023-01-01T22:46:47.869Z,2.78
2023-01-01T22:49:22.228Z,3.00
2023-01-01T22:51:54.656Z,2.90
2023-01-01T22:54:21.532Z,2.42
2023-01-01T22:56:48.617Z,3.92
2023-01-01T22:59:15.455Z,2.30
2023-01-01T23:01:42.350Z,2.28
2023-01-01T23:04:09.149Z,4.43
2023-01-01T23:06:36.883Z,3.40
2023-01-01T23:09:05.140Z,2.13
2023-01-01T23:11:31.951Z,4.68
2023-01-01T23:14:17.567Z,4.00
2023-01-01T23:16:44.484Z,2.75
2023-01-01T23:19:11.655Z,2.88
2023-01-01T23:21:42.294Z,3.03
2023-01-01T23:24:15.371Z,2.47
2023-01-01T23:26:43.066Z,2.15
2023-01-01T23:29:11.533Z,3.17
2023-01-01T23:31:39.948Z,4.72
2023-01-01T23:34:07.603Z,2.42
2023-01-01T23:36:34.830Z,3.45
2023-01-01T23:39:06.819Z,2.72
2023-01-01T23:41:33.598Z,4.00
2023-01-01T23:44:00.394Z,3.92
2023-01-01T23:46:27.643Z,3.67
2023-01-01T23:48:55.575Z,3.95
2023-01-01T23:51:22.791Z,4.93
2023-01-01T23:53:49.543Z,4.68
2023-01-01T23:56:16.378Z,4.93
2023-01-01T23:58:43.586Z,3.80
